createdAt,value
2019-01-04T00:01:41.134Z,36.67
2019-01-04T00:06:46.768Z,32.50
2019-01-04T00:11:58.476Z,37.90
2019-01-04T00:17:03.879Z,35.80
2019-01-04T00:22:22.696Z,35.23
2019-01-04T00:27:27.823Z,36.87
2019-01-04T00:32:57.080Z,37.40
2019-01-04T00:38:03.084Z,35.60
2019-01-04T00:43:08.200Z,36.57
2019-01-04T00:48:13.489Z,38.30
2019-01-04T00:53:18.864Z,33.43
2019-01-04T00:59:03.740Z,38.10
2019-01-04T01:04:53.074Z,34.17
2019-01-04T01:10:33.652Z,37.33
2019-01-04T01:16:08.504Z,38.37
2019-01-04T01:21:50.600Z,42.07
2019-01-04T01:27:54.390Z,34.93
2019-01-04T01:33:33.810Z,35.83
2019-01-04T01:39:17.751Z,37.47
2019-01-04T01:44:54.562Z,36.57
2019-01-04T01:50:58.710Z,38.67
2019-01-04T01:56:04.320Z,37.37
2019-01-04T02:01:09.414Z,39.27
2019-01-04T02:06:14.490Z,40.73
2019-01-04T02:11:20.237Z,43.43
2019-01-04T02:16:25.593Z,44.67
2019-01-04T02:21:30.729Z,45.73
2019-01-04T02:26:35.831Z,44.80
2019-01-04T02:31:41.426Z,48.63
2019-01-04T02:36:46.874Z,41.27
2019-01-04T02:41:52.140Z,40.80
2019-01-04T02:46:57.242Z,46.90
2019-01-04T02:52:02.739Z,44.13
2019-01-04T02:57:07.792Z,45.83
2019-01-04T03:02:12.842Z,47.30
2019-01-04T03:07:18.307Z,45.47
2019-01-04T03:12:23.344Z,46.13
2019-01-04T03:17:28.453Z,47.00
2019-01-04T03:22:33.532Z,51.30
2019-01-04T03:27:38.739Z,51.80
2019-01-04T03:32:43.759Z,50.70
2019-01-04T03:37:48.742Z,50.57
2019-01-04T03:42:53.787Z,57.27
2019-01-04T03:48:01.099Z,58.20
2019-01-04T03:53:06.203Z,52.10
2019-01-04T03:58:12.625Z,50.27
2019-01-04T04:03:17.735Z,51.57
2019-01-04T04:08:22.850Z,51.67
2019-01-04T04:13:28.172Z,46.83
2019-01-04T04:18:33.218Z,55.20
2019-01-04T04:23:38.365Z,53.07
2019-01-04T04:28:44.185Z,52.30
2019-01-04T04:33:49.221Z,55.30
2019-01-04T04:38:54.359Z,49.97
2019-01-04T04:43:59.471Z,56.63
2019-01-04T04:49:04.528Z,58.53
2019-01-04T04:54:09.691Z,52.83
2019-01-04T04:59:14.851Z,57.97
2019-01-04T05:04:20.613Z,55.87
2019-01-04T05:09:25.657Z,55.00
2019-01-04T05:14:30.804Z,56.37
2019-01-04T05:19:37.149Z,48.30
2019-01-04T05:24:42.195Z,52.83
2019-01-04T05:29:47.222Z,54.83
2019-01-04T05:34:52.716Z,49.43
2019-01-04T05:39:57.719Z,52.03
2019-01-04T05:45:02.767Z,51.03
2019-01-04T05:50:08.204Z,52.87
2019-01-04T05:55:13.391Z,56.40
2019-01-04T06:00:18.453Z,51.07
2019-01-04T06:05:24.427Z,53.80
2019-01-04T06:10:29.530Z,49.23
2019-01-04T06:15:34.544Z,45.17
2019-01-04T06:20:40.896Z,52.73
2019-01-04T06:25:46.053Z,51.37
2019-01-04T06:30:51.343Z,46.13
2019-01-04T06:36:00.602Z,41.73
2019-01-04T06:41:05.954Z,48.70
2019-01-04T06:46:13.353Z,50.73
2019-01-04T06:51:18.877Z,48.43
2019-01-04T06:56:24.417Z,41.87
2019-01-04T07:01:29.605Z,44.10
2019-01-04T07:06:34.767Z,45.77
2019-01-04T07:11:40.305Z,44.70
2019-01-04T07:16:45.431Z,44.87
2019-01-04T07:21:50.586Z,50.17
2019-01-04T07:26:55.953Z,45.30
2019-01-04T07:32:03.299Z,40.17
2019-01-04T07:37:08.693Z,40.50
2019-01-04T07:42:14.347Z,43.40
2019-01-04T07:47:19.374Z,42.47
2019-01-04T07:52:25.073Z,40.27
2019-01-04T07:57:30.479Z,40.17
2019-01-04T08:02:49.776Z,39.40
2019-01-04T08:07:55.212Z,37.27
2019-01-04T08:13:00.890Z,40.83
2019-01-04T08:18:06.253Z,42.03
2019-01-04T08:23:13.401Z,40.40
2019-01-04T08:28:18.441Z,42.17
2019-01-04T08:33:26.365Z,42.77
2019-01-04T08:38:32.779Z,42.10
2019-01-04T08:43:38.449Z,42.63
2019-01-04T08:48:44.421Z,40.23
2019-01-04T08:53:57.442Z,40.70
2019-01-04T08:59:02.992Z,42.47
2019-01-04T09:04:08.545Z,49.27
2019-01-04T09:09:14.105Z,40.70
2019-01-04T09:14:19.335Z,44.30
2019-01-04T09:19:28.197Z,38.43
2019-01-04T09:24:33.881Z,43.13
2019-01-04T09:29:39.021Z,34.60
2019-01-04T09:34:44.151Z,34.53
2019-01-04T09:39:49.281Z,31.47
2019-01-04T09:44:54.565Z,37.83
2019-01-04T09:50:00.211Z,32.80
2019-01-04T09:55:05.555Z,30.97
2019-01-04T10:00:14.073Z,28.43
2019-01-04T10:05:19.253Z,30.20
2019-01-04T10:10:24.465Z,30.03
2019-01-04T10:15:29.513Z,32.37
2019-01-04T10:20:34.667Z,31.67
2019-01-04T10:25:39.769Z,34.87
2019-01-04T10:30:45.143Z,33.73
2019-01-04T10:35:50.251Z,33.20
2019-01-04T10:40:55.423Z,32.27
2019-01-04T10:46:01.037Z,27.87
2019-01-04T10:51:06.202Z,28.83
2019-01-04T10:56:11.416Z,30.70
2019-01-04T11:01:16.518Z,30.50
2019-01-04T11:06:21.706Z,30.80
2019-01-04T11:11:27.054Z,33.97
2019-01-04T11:16:32.839Z,29.50
2019-01-04T11:21:39.485Z,27.13
2019-01-04T11:26:51.928Z,38.60
2019-01-04T11:32:10.333Z,40.13
2019-01-04T11:38:07.713Z,38.77
2019-01-04T11:44:06.748Z,37.60
2019-01-04T11:50:02.304Z,33.97
2019-01-04T11:55:07.327Z,32.47
2019-01-04T12:00:12.989Z,32.73
2019-01-04T12:05:18.411Z,34.40
2019-01-04T12:10:23.511Z,34.47
2019-01-04T12:15:28.593Z,31.80
2019-01-04T12:20:33.959Z,37.13
2019-01-04T12:25:39.012Z,34.53
2019-01-04T12:30:44.111Z,28.00
2019-01-04T12:35:49.440Z,25.67
2019-01-04T12:40:54.696Z,25.20
2019-01-04T12:45:59.979Z,30.03
2019-01-04T12:51:05.733Z,28.47
2019-01-04T12:56:11.209Z,39.07
2019-01-04T13:01:21.575Z,34.80
2019-01-04T13:06:26.693Z,34.20
2019-01-04T13:11:31.933Z,37.50
2019-01-04T13:16:37.511Z,34.50
2019-01-04T13:21:42.961Z,28.40
2019-01-04T13:26:48.461Z,25.20
2019-01-04T13:32:07.069Z,28.13
2019-01-04T13:37:12.246Z,25.77
2019-01-04T13:42:17.841Z,25.37
2019-01-04T13:47:23.319Z,35.17
2019-01-04T13:52:28.947Z,26.30
2019-01-04T13:57:34.124Z,33.37
2019-01-04T14:02:44.346Z,32.37
2019-01-04T14:07:49.633Z,34.37
2019-01-04T14:12:54.801Z,34.63
2019-01-04T14:18:00.774Z,34.30
2019-01-04T14:23:06.579Z,40.10
2019-01-04T14:28:12.181Z,39.30
2019-01-04T14:33:35.339Z,44.60
2019-01-04T14:38:41.015Z,41.50
2019-01-04T14:43:46.373Z,40.80
2019-01-04T14:48:51.647Z,34.77
2019-01-04T14:53:56.749Z,31.40
2019-01-04T14:59:02.072Z,36.00
2019-01-04T15:04:07.504Z,40.90
2019-01-04T15:09:12.727Z,36.93
2019-01-04T15:14:17.917Z,34.60
2019-01-04T15:19:23.073Z,35.57
2019-01-04T15:24:28.428Z,28.93
2019-01-04T15:29:34.622Z,30.23
2019-01-04T15:34:39.900Z,32.57
2019-01-04T15:39:45.178Z,29.33
2019-01-04T15:44:50.393Z,27.27
2019-01-04T15:49:55.553Z,32.70
2019-01-04T15:55:00.725Z,34.17
2019-01-04T16:00:07.856Z,32.97
2019-01-04T16:05:13.134Z,33.00
2019-01-04T16:10:18.726Z,36.43
2019-01-04T16:15:24.206Z,31.83
2019-01-04T16:20:29.490Z,32.03
2019-01-04T16:25:34.523Z,33.27
2019-01-04T16:30:40.158Z,37.10
2019-01-04T16:35:45.334Z,40.30
2019-01-04T16:40:50.582Z,38.17
2019-01-04T16:45:55.737Z,38.50
2019-01-04T16:51:01.887Z,36.17
2019-01-04T16:56:07.230Z,33.63
2019-01-04T17:01:12.498Z,34.50
2019-01-04T17:06:17.764Z,37.03
2019-01-04T17:11:23.113Z,38.20
2019-01-04T17:16:28.811Z,35.87
2019-01-04T17:21:34.106Z,34.10
2019-01-04T17:26:39.800Z,40.77
2019-01-04T17:31:45.317Z,37.57
2019-01-04T17:36:50.780Z,36.10
2019-01-04T17:42:05.272Z,34.57
2019-01-04T17:47:10.838Z,34.77
2019-01-04T17:52:16.198Z,35.03
2019-01-04T17:57:22.004Z,37.97
2019-01-04T18:02:27.200Z,37.47
2019-01-04T18:07:32.800Z,38.47
2019-01-04T18:12:38.768Z,40.90
2019-01-04T18:17:44.680Z,35.00
2019-01-04T18:22:49.918Z,37.60
2019-01-04T18:27:55.279Z,36.60
2019-01-04T18:33:01.018Z,38.17
2019-01-04T18:38:06.298Z,38.40
2019-01-04T18:43:12.289Z,33.17
2019-01-04T18:48:17.748Z,33.93
2019-01-04T18:53:24.005Z,34.60
2019-01-04T18:58:29.578Z,34.23
2019-01-04T19:03:34.841Z,29.93
2019-01-04T19:08:40.231Z,27.70
2019-01-04T19:13:46.240Z,31.80
2019-01-04T19:18:52.790Z,33.60
2019-01-04T19:23:58.112Z,37.60
2019-01-04T19:29:05.200Z,32.60
2019-01-04T19:34:15.720Z,30.37
2019-01-04T19:39:20.863Z,37.43
2019-01-04T19:44:26.218Z,35.47
2019-01-04T19:49:31.838Z,30.70
2019-01-04T19:54:37.750Z,33.37
2019-01-04T19:59:44.396Z,31.17
2019-01-04T20:04:49.809Z,32.70
2019-01-04T20:10:48.630Z,33.03
2019-01-04T20:16:36.132Z,30.73
2019-01-04T20:21:59.210Z,30.93
2019-01-04T20:27:23.608Z,26.13
2019-01-04T20:32:53.678Z,29.67
2019-01-04T20:38:30.070Z,30.83
2019-01-04T20:44:00.896Z,32.17
2019-01-04T20:49:23.969Z,31.83
2019-01-04T20:54:47.658Z,38.67
2019-01-04T21:00:13.216Z,36.90
2019-01-04T21:05:42.824Z,34.90
2019-01-04T21:11:22.339Z,31.87
2019-01-04T21:16:45.432Z,28.37
2019-01-04T21:28:30.438Z,26.10
2019-01-04T21:33:53.654Z,31.00
2019-01-04T21:39:20.844Z,28.90
2019-01-04T21:44:57.078Z,32.77
2019-01-04T21:50:20.430Z,34.87
2019-01-04T21:55:42.958Z,29.87
2019-01-04T22:01:25.896Z,30.77
2019-01-04T22:06:52.802Z,33.53
2019-01-04T22:12:19.840Z,30.87
2019-01-04T22:17:45.668Z,34.50
2019-01-04T22:23:30.150Z,28.20
2019-01-04T22:29:00.546Z,30.70
2019-01-04T22:34:32.906Z,31.90
2019-01-04T22:40:07.702Z,29.90
2019-01-04T22:45:27.395Z,34.23
2019-01-04T22:50:50.361Z,28.77
2019-01-04T22:56:18.640Z,29.53
2019-01-04T23:01:59.780Z,35.50
2019-01-04T23:07:41.980Z,29.30
2019-01-04T23:13:15.887Z,27.63
2019-01-04T23:18:55.296Z,29.33
2019-01-04T23:24:18.264Z,25.07
2019-01-04T23:29:53.458Z,26.80
2019-01-04T23:35:18.409Z,24.23
2019-01-04T23:40:57.780Z,25.30
2019-01-04T23:46:27.370Z,28.27
2019-01-04T23:51:54.288Z,26.73
2019-01-04T23:57:24.167Z,28.73
